ンジャメナ の空港の天気 - METARとTAF

ンジャメナ国際空港 ( FTTJ / NDJ ) - チャド ンジャメナ
飛行場実況気象(Metar)
観測時間04/27 05:00 WAT (04/27 04:00 UTC)
風向・風速北 2m/s
視程10km以上
天気現象
なし
気温27℃
湿度37%
気圧1008hPa
METARFTTJ 270400Z 36004KT CAVOK 27/11 Q1008 NOSIG
過去の天気等 Google飛行場航空写真 Wunderground天気予報

過去48時間のMETAR

飛行場予報(TAF)
発表時間: 4/27 00:00 WAT (4/26 23:00 UTC)
予報対象時間: 27日1時 WAT ~ 28日7時 WAT
風向・風速不定 3m/s
視程8,000m
なし
TAF FTTJ 262300Z 2700/2806 VRB06KT 8000 NSC